createdAt,value
2018-02-27T00:00:24.398Z,7.70
2018-02-27T00:01:24.421Z,7.50
2018-02-27T00:02:24.449Z,6.50
2018-02-27T00:03:24.474Z,6.20
2018-02-27T00:04:24.500Z,6.70
2018-02-27T00:05:24.526Z,7.30
2018-02-27T00:06:24.548Z,7.00
2018-02-27T00:07:24.580Z,7.00
2018-02-27T00:08:24.602Z,7.50
2018-02-27T00:09:24.644Z,6.90
2018-02-27T00:10:24.651Z,7.60
2018-02-27T00:11:24.712Z,7.20
2018-02-27T00:12:24.705Z,7.10
2018-02-27T00:13:24.730Z,5.70
2018-02-27T00:14:24.753Z,7.00
2018-02-27T00:15:24.788Z,7.70
2018-02-27T00:16:24.808Z,6.90
2018-02-27T00:17:24.859Z,8.50
2018-02-27T00:18:24.855Z,9.40
2018-02-27T00:19:24.884Z,7.10
2018-02-27T00:20:24.911Z,8.80
2018-02-27T00:21:24.934Z,7.80
2018-02-27T00:22:24.961Z,6.90
2018-02-27T00:23:24.991Z,6.70
2018-02-27T00:24:25.012Z,8.10
2018-02-27T00:25:25.036Z,7.50
2018-02-27T00:26:25.062Z,6.70
2018-02-27T00:27:25.087Z,7.50
2018-02-27T00:28:25.116Z,6.10
2018-02-27T00:29:25.142Z,6.90
2018-02-27T00:30:25.163Z,6.70
2018-02-27T00:31:25.192Z,7.80
2018-02-27T00:32:25.217Z,6.50
2018-02-27T00:33:25.254Z,6.30
2018-02-27T00:34:25.282Z,6.50
2018-02-27T00:35:25.305Z,6.30
2018-02-27T00:36:25.316Z,5.30
2018-02-27T00:37:25.342Z,5.50
2018-02-27T00:38:25.368Z,6.60
2018-02-27T00:39:25.397Z,7.40
2018-02-27T00:40:25.424Z,5.60
2018-02-27T00:41:25.446Z,5.70
2018-02-27T00:42:25.472Z,8.30
2018-02-27T00:43:25.497Z,6.70
2018-02-27T00:44:25.538Z,6.40
2018-02-27T00:45:25.549Z,6.60
2018-02-27T00:46:25.581Z,5.30
2018-02-27T00:47:25.601Z,5.40
2018-02-27T00:48:25.626Z,7.50
2018-02-27T00:49:25.653Z,5.50
2018-02-27T00:50:25.677Z,7.50
2018-02-27T00:51:25.702Z,6.30
2018-02-27T00:52:25.739Z,7.50
2018-02-27T00:53:25.751Z,6.70
2018-02-27T00:54:25.776Z,6.40
2018-02-27T00:55:25.802Z,7.40
2018-02-27T00:56:25.831Z,7.50
2018-02-27T00:57:25.860Z,6.50
2018-02-27T00:58:25.880Z,7.40
2018-02-27T00:59:25.906Z,7.90
2018-02-27T01:00:25.928Z,7.30
2018-02-27T01:01:25.956Z,9.70
2018-02-27T01:02:25.993Z,5.70
2018-02-27T01:03:26.007Z,7.50
2018-02-27T01:04:26.153Z,8.20
2018-02-27T01:05:26.057Z,6.10
2018-02-27T01:06:26.086Z,5.80
2018-02-27T01:07:26.107Z,7.20
2018-02-27T01:08:26.133Z,7.00
2018-02-27T01:09:26.159Z,7.20
2018-02-27T01:10:26.182Z,6.40
2018-02-27T01:11:26.209Z,4.70
2018-02-27T01:12:26.244Z,6.10
2018-02-27T01:13:26.299Z,5.90
2018-02-27T01:14:26.340Z,7.40
2018-02-27T01:15:26.312Z,5.80
2018-02-27T01:16:26.338Z,7.90
2018-02-27T01:17:26.362Z,7.60
2018-02-27T01:18:26.387Z,7.20
2018-02-27T01:19:26.414Z,7.60
2018-02-27T01:20:26.438Z,6.30
2018-02-27T01:21:26.570Z,8.50
2018-02-27T01:22:26.499Z,7.00
2018-02-27T01:23:26.517Z,7.30
2018-02-27T01:24:26.538Z,5.80
2018-02-27T01:25:26.569Z,7.80
2018-02-27T01:26:26.592Z,8.00
2018-02-27T01:27:26.620Z,7.70
2018-02-27T01:28:26.645Z,9.00
2018-02-27T01:29:26.678Z,6.10
2018-02-27T01:30:26.692Z,8.40
2018-02-27T01:31:26.772Z,6.90
2018-02-27T01:32:26.745Z,7.20
2018-02-27T01:33:26.771Z,7.10
2018-02-27T01:34:26.797Z,7.20
2018-02-27T01:35:26.822Z,8.70
2018-02-27T01:36:26.849Z,7.60
2018-02-27T01:37:26.871Z,8.60
2018-02-27T01:38:26.896Z,8.30
2018-02-27T01:39:26.922Z,6.70
2018-02-27T01:40:26.945Z,7.40
2018-02-27T01:41:26.974Z,7.50
2018-02-27T01:42:26.999Z,6.30
2018-02-27T01:43:27.037Z,6.10
2018-02-27T01:44:27.051Z,7.50
2018-02-27T01:45:27.073Z,7.10
2018-02-27T01:46:27.103Z,8.90
2018-02-27T01:47:27.125Z,7.50
2018-02-27T01:48:27.148Z,6.60
2018-02-27T01:49:27.177Z,7.20
2018-02-27T01:50:27.199Z,8.00
2018-02-27T01:51:27.226Z,7.50
2018-02-27T01:52:27.252Z,6.30
2018-02-27T01:53:27.275Z,8.00
2018-02-27T01:54:27.334Z,6.10
2018-02-27T01:55:27.325Z,7.70
2018-02-27T01:56:27.354Z,6.10
2018-02-27T01:57:27.375Z,7.60
2018-02-27T01:58:27.403Z,7.50
2018-02-27T01:59:27.426Z,5.70
2018-02-27T02:00:27.467Z,6.30
2018-02-27T02:01:27.477Z,6.80
2018-02-27T02:02:27.505Z,7.80
2018-02-27T02:03:27.528Z,8.70
2018-02-27T02:04:27.554Z,8.90
2018-02-27T02:05:27.579Z,6.40
2018-02-27T02:06:27.605Z,8.50
2018-02-27T02:07:27.630Z,7.80
2018-02-27T02:08:27.654Z,6.50
2018-02-27T02:09:27.680Z,9.10
2018-02-27T02:10:27.705Z,7.40
2018-02-27T02:11:27.728Z,10.80
2018-02-27T02:12:27.754Z,7.40
2018-02-27T02:13:27.780Z,7.60
2018-02-27T02:14:27.807Z,7.20
2018-02-27T02:15:27.829Z,8.10
2018-02-27T02:16:27.856Z,7.60
2018-02-27T02:17:27.954Z,8.90
2018-02-27T02:18:27.905Z,7.70
2018-02-27T02:19:27.928Z,8.80
2018-02-27T02:20:27.956Z,8.00
2018-02-27T02:21:27.983Z,9.20
2018-02-27T02:22:28.008Z,10.80
2018-02-27T02:23:28.033Z,9.40
2018-02-27T02:24:28.057Z,8.70
2018-02-27T02:25:28.081Z,8.30
2018-02-27T02:26:28.109Z,8.30
2018-02-27T02:27:28.132Z,8.10
2018-02-27T02:28:28.157Z,8.50
2018-02-27T02:29:28.183Z,9.70
2018-02-27T02:30:28.223Z,7.80
2018-02-27T02:31:28.231Z,7.00
2018-02-27T02:32:28.255Z,10.00
2018-02-27T02:33:28.287Z,7.30
2018-02-27T02:34:28.325Z,9.20
2018-02-27T02:35:28.331Z,7.40
2018-02-27T02:36:28.361Z,7.70
2018-02-27T02:37:28.385Z,10.80
2018-02-27T02:38:28.410Z,7.50
2018-02-27T02:39:28.431Z,8.40
2018-02-27T02:40:28.462Z,7.50
2018-02-27T02:41:28.480Z,8.30
2018-02-27T02:42:28.509Z,8.70
2018-02-27T02:43:28.531Z,7.40
2018-02-27T02:44:28.559Z,7.80
2018-02-27T02:45:28.585Z,9.40
2018-02-27T02:46:28.698Z,7.60
2018-02-27T02:47:28.632Z,8.60
2018-02-27T02:48:28.675Z,10.00
2018-02-27T02:49:28.683Z,8.10
2018-02-27T02:50:28.709Z,8.00
2018-02-27T02:51:28.733Z,8.00
2018-02-27T02:52:28.760Z,8.30
2018-02-27T02:53:28.783Z,7.20
2018-02-27T02:54:28.812Z,8.50
2018-02-27T02:55:28.833Z,8.40
2018-02-27T02:56:28.860Z,9.00
2018-02-27T02:57:28.883Z,8.40
2018-02-27T02:58:28.912Z,9.30
2018-02-27T02:59:28.931Z,9.80
2018-02-27T03:00:28.960Z,8.10
2018-02-27T03:01:28.981Z,8.20
2018-02-27T03:02:29.005Z,9.00
2018-02-27T03:03:29.164Z,9.00
2018-02-27T03:04:29.063Z,9.20
2018-02-27T03:05:29.084Z,8.10
2018-02-27T03:06:29.108Z,8.60
2018-02-27T03:07:29.133Z,9.60
2018-02-27T03:08:29.158Z,10.10
2018-02-27T03:09:29.183Z,11.10
2018-02-27T03:10:29.217Z,8.10
2018-02-27T03:11:29.234Z,10.20
2018-02-27T03:12:29.257Z,9.30
2018-02-27T03:13:29.304Z,8.50
2018-02-27T03:14:29.309Z,11.70
2018-02-27T03:15:29.334Z,9.20
2018-02-27T03:16:29.359Z,8.00
2018-02-27T03:17:29.382Z,8.90
2018-02-27T03:18:29.408Z,10.70
2018-02-27T03:19:29.433Z,8.10
2018-02-27T03:20:29.484Z,7.40
2018-02-27T03:21:29.484Z,8.90
2018-02-27T03:22:29.508Z,7.50
2018-02-27T03:23:29.535Z,7.00
2018-02-27T03:24:29.556Z,8.30
2018-02-27T03:25:29.585Z,8.30
2018-02-27T03:26:29.608Z,8.10
2018-02-27T03:27:29.634Z,7.00
2018-02-27T03:28:29.665Z,8.00
2018-02-27T03:29:29.684Z,9.30
2018-02-27T03:30:29.705Z,7.40
2018-02-27T03:31:29.731Z,10.50
2018-02-27T03:32:29.755Z,8.10
2018-02-27T03:33:29.782Z,7.40
2018-02-27T03:34:29.806Z,9.00
2018-02-27T03:35:29.831Z,7.70
2018-02-27T03:36:29.855Z,7.40
2018-02-27T03:37:29.890Z,8.20
2018-02-27T03:38:29.905Z,8.30
2018-02-27T03:39:29.936Z,6.70
2018-02-27T03:40:29.957Z,8.20
2018-02-27T03:41:29.980Z,8.20
2018-02-27T03:42:30.019Z,7.80
2018-02-27T03:43:30.032Z,7.60
2018-02-27T03:44:30.056Z,7.50
2018-02-27T03:45:30.082Z,9.90
2018-02-27T03:46:30.108Z,8.70
2018-02-27T03:47:30.128Z,9.90
2018-02-27T03:48:30.157Z,8.20
2018-02-27T03:49:30.180Z,9.00
2018-02-27T03:50:30.207Z,10.30
2018-02-27T03:51:30.234Z,9.50
2018-02-27T03:52:30.258Z,7.80
2018-02-27T03:53:30.281Z,8.30
2018-02-27T03:54:30.309Z,8.60
2018-02-27T03:55:30.330Z,9.30
2018-02-27T03:56:30.359Z,7.20
2018-02-27T03:57:30.389Z,8.50
2018-02-27T03:58:30.404Z,11.40
2018-02-27T03:59:30.504Z,8.20
2018-02-27T04:00:30.460Z,8.10
2018-02-27T04:01:30.480Z,10.00
2018-02-27T04:02:30.504Z,9.80
2018-02-27T04:03:30.529Z,9.30
2018-02-27T04:04:30.554Z,7.70
2018-02-27T04:05:30.581Z,8.90
2018-02-27T04:06:30.604Z,10.50
2018-02-27T04:07:30.629Z,9.70
2018-02-27T04:08:30.654Z,8.60
2018-02-27T04:09:30.680Z,9.50
2018-02-27T04:10:30.703Z,8.90
2018-02-27T04:11:30.730Z,9.00
2018-02-27T04:12:30.752Z,8.20
2018-02-27T04:13:30.780Z,10.10
2018-02-27T04:14:30.803Z,8.10
2018-02-27T04:15:30.831Z,6.80
2018-02-27T04:16:30.898Z,9.00
2018-02-27T04:17:30.880Z,9.00
2018-02-27T04:18:30.904Z,10.40
2018-02-27T04:19:30.943Z,9.00
2018-02-27T04:20:30.954Z,9.70
2018-02-27T04:21:30.982Z,9.00
2018-02-27T04:22:31.001Z,7.60
2018-02-27T04:23:31.027Z,9.20
2018-02-27T04:24:31.053Z,10.50
2018-02-27T04:25:31.079Z,9.00
2018-02-27T04:26:31.102Z,9.00
2018-02-27T04:27:31.127Z,7.10
2018-02-27T04:28:31.165Z,9.30
2018-02-27T04:29:31.192Z,9.40
2018-02-27T04:30:31.205Z,8.20
2018-02-27T04:31:31.228Z,10.20
2018-02-27T04:32:31.267Z,9.50
2018-02-27T04:33:31.277Z,9.00
2018-02-27T04:34:31.303Z,10.50
2018-02-27T04:35:31.328Z,9.40
2018-02-27T04:36:31.353Z,8.20
2018-02-27T04:37:31.379Z,9.30
2018-02-27T04:38:31.408Z,10.20
2018-02-27T04:39:31.427Z,10.10
2018-02-27T04:40:31.457Z,9.20
2018-02-27T04:41:31.478Z,10.40
2018-02-27T04:42:31.505Z,10.50
2018-02-27T04:43:31.527Z,10.70
2018-02-27T04:44:31.555Z,10.00
2018-02-27T04:45:31.600Z,8.60
2018-02-27T04:46:31.605Z,10.50
2018-02-27T04:47:31.625Z,12.40
2018-02-27T04:48:31.664Z,9.20
2018-02-27T04:49:31.694Z,8.90
2018-02-27T04:50:31.701Z,10.60
2018-02-27T04:51:31.726Z,11.00
2018-02-27T04:52:31.750Z,11.00
2018-02-27T04:53:31.776Z,10.30
2018-02-27T04:54:31.801Z,10.20
2018-02-27T04:55:31.876Z,9.60
2018-02-27T04:56:31.851Z,9.70
2018-02-27T04:57:31.875Z,10.80
2018-02-27T04:58:31.901Z,8.70
2018-02-27T04:59:31.940Z,10.20
2018-02-27T05:00:31.952Z,10.20
2018-02-27T05:01:31.981Z,9.10
2018-02-27T05:02:32.007Z,9.90
2018-02-27T05:03:32.027Z,11.30
2018-02-27T05:04:32.049Z,11.10
2018-02-27T05:05:32.076Z,10.90
2018-02-27T05:06:32.099Z,9.50
2018-02-27T05:07:32.135Z,12.70
2018-02-27T05:08:32.151Z,12.20
2018-02-27T05:09:32.177Z,9.50
2018-02-27T05:10:32.197Z,10.50
2018-02-27T05:11:32.223Z,10.60
2018-02-27T05:12:32.256Z,10.50
2018-02-27T05:13:32.273Z,10.50
2018-02-27T05:14:32.304Z,11.70
2018-02-27T05:15:32.323Z,10.60
2018-02-27T05:16:32.347Z,9.50
2018-02-27T05:17:32.378Z,8.90
2018-02-27T05:18:32.405Z,12.60
2018-02-27T05:19:32.430Z,11.40
2018-02-27T05:20:32.453Z,13.80
2018-02-27T05:21:32.472Z,13.20
2018-02-27T05:22:32.500Z,13.30
2018-02-27T05:23:32.523Z,12.30
2018-02-27T05:24:32.689Z,10.30
2018-02-27T05:25:32.573Z,11.70
2018-02-27T05:26:32.596Z,10.60
2018-02-27T05:27:32.621Z,10.00
2018-02-27T05:28:32.645Z,14.20
2018-02-27T05:29:32.673Z,11.30
2018-02-27T05:30:32.739Z,12.00
2018-02-27T05:31:32.721Z,13.10
2018-02-27T05:32:32.752Z,12.60
2018-02-27T05:33:32.771Z,14.10
2018-02-27T05:34:32.796Z,12.50
2018-02-27T05:35:32.822Z,15.20
2018-02-27T05:36:32.845Z,14.50
2018-02-27T05:37:32.872Z,15.80
2018-02-27T05:38:32.895Z,15.30
2018-02-27T05:39:32.921Z,16.40
2018-02-27T05:40:32.945Z,15.20
2018-02-27T05:41:32.972Z,13.30
2018-02-27T05:42:32.993Z,13.80
2018-02-27T05:43:33.017Z,11.60
2018-02-27T05:44:33.042Z,14.70
2018-02-27T05:45:33.067Z,12.10
2018-02-27T05:46:33.093Z,12.90
2018-02-27T05:47:33.119Z,13.10
2018-02-27T05:48:33.142Z,10.60
2018-02-27T05:49:33.164Z,12.40
2018-02-27T05:50:33.203Z,13.30
2018-02-27T05:51:33.315Z,12.80
2018-02-27T05:52:33.242Z,10.60
2018-02-27T05:53:33.263Z,14.80
2018-02-27T05:54:33.289Z,13.20
2018-02-27T05:55:33.314Z,15.60
2018-02-27T05:56:33.338Z,12.70
2018-02-27T05:57:33.364Z,13.80
2018-02-27T05:58:33.387Z,13.10
2018-02-27T05:59:33.414Z,17.10
2018-02-27T06:00:33.438Z,16.50
2018-02-27T06:01:33.479Z,16.10
2018-02-27T06:02:33.500Z,15.50
2018-02-27T06:03:33.511Z,17.70
2018-02-27T06:04:33.534Z,21.60
2018-02-27T06:05:33.560Z,22.50
2018-02-27T06:06:33.583Z,19.60
2018-02-27T06:07:33.612Z,23.00
2018-02-27T06:08:33.640Z,21.90
2018-02-27T06:09:33.657Z,24.70
2018-02-27T06:10:33.680Z,22.90
2018-02-27T06:11:33.708Z,21.80
2018-02-27T06:12:33.730Z,21.50
2018-02-27T06:13:33.771Z,24.00
2018-02-27T06:14:33.779Z,17.80
2018-02-27T06:15:33.805Z,21.00
2018-02-27T06:16:33.828Z,22.30
2018-02-27T06:17:33.855Z,19.40
2018-02-27T06:18:33.876Z,21.60
2018-02-27T06:19:33.906Z,17.90
2018-02-27T06:20:34.029Z,20.30
2018-02-27T06:21:33.965Z,16.50
2018-02-27T06:22:33.974Z,16.80
2018-02-27T06:23:33.999Z,18.50
2018-02-27T06:24:34.027Z,18.00
2018-02-27T06:25:34.053Z,17.40
2018-02-27T06:26:34.073Z,17.70
2018-02-27T06:27:34.098Z,18.10
2018-02-27T06:28:34.122Z,18.40
2018-02-27T06:29:34.153Z,16.80
2018-02-27T06:30:34.170Z,15.50
2018-02-27T06:31:34.198Z,15.40
2018-02-27T06:32:34.225Z,13.60
2018-02-27T06:33:34.244Z,13.50
2018-02-27T06:34:34.269Z,15.50
2018-02-27T06:35:34.294Z,11.90
2018-02-27T06:36:34.319Z,11.70
2018-02-27T06:37:34.351Z,12.10
2018-02-27T06:38:34.366Z,15.00
2018-02-27T06:39:34.392Z,14.30
2018-02-27T06:40:34.414Z,13.10
2018-02-27T06:41:34.439Z,14.20
2018-02-27T06:42:34.481Z,13.80
2018-02-27T06:43:34.489Z,13.90
2018-02-27T06:44:34.511Z,11.80
2018-02-27T06:45:34.539Z,13.90
2018-02-27T06:46:34.570Z,12.70
2018-02-27T06:47:34.590Z,13.00
2018-02-27T06:48:34.613Z,11.90
2018-02-27T06:49:34.635Z,13.50
2018-02-27T06:50:34.661Z,12.60
2018-02-27T06:51:34.683Z,13.60
2018-02-27T06:52:34.710Z,12.60
2018-02-27T06:53:34.742Z,11.80
2018-02-27T06:54:34.815Z,13.60
2018-02-27T06:55:34.781Z,10.60
2018-02-27T06:56:34.806Z,13.60
2018-02-27T06:57:34.831Z,12.70
2018-02-27T06:58:34.858Z,11.90
2018-02-27T06:59:34.881Z,11.90
2018-02-27T07:00:34.904Z,14.90
2018-02-27T07:01:34.932Z,14.20
2018-02-27T07:02:34.959Z,14.40
2018-02-27T07:03:34.978Z,14.20
2018-02-27T07:04:35.001Z,13.20
2018-02-27T07:05:35.029Z,13.50
2018-02-27T07:06:35.053Z,13.60
2018-02-27T07:07:35.084Z,13.50
2018-02-27T07:08:35.101Z,13.30
2018-02-27T07:09:35.123Z,12.50
2018-02-27T07:10:35.147Z,14.20
2018-02-27T07:11:35.176Z,13.00
2018-02-27T07:12:35.198Z,13.00
2018-02-27T07:13:35.224Z,15.80
2018-02-27T07:14:35.252Z,16.60
2018-02-27T07:15:35.274Z,14.60
2018-02-27T07:16:35.300Z,17.80
2018-02-27T07:17:35.322Z,20.50
2018-02-27T07:18:35.345Z,18.40
2018-02-27T07:19:35.370Z,19.40
2018-02-27T07:20:35.396Z,17.90
2018-02-27T07:21:35.421Z,18.70
2018-02-27T07:22:35.444Z,18.50
2018-02-27T07:23:35.562Z,18.70
2018-02-27T07:24:35.495Z,18.20
2018-02-27T07:25:35.517Z,17.60
2018-02-27T07:26:35.546Z,19.60
2018-02-27T07:27:35.567Z,19.30
2018-02-27T07:28:35.602Z,19.70
2018-02-27T07:29:35.615Z,24.30
2018-02-27T07:30:35.640Z,19.60
2018-02-27T07:31:35.665Z,18.80
2018-02-27T07:32:35.690Z,19.00
2018-02-27T07:33:35.725Z,21.90
2018-02-27T07:34:35.741Z,21.00
2018-02-27T07:35:35.765Z,18.30
2018-02-27T07:36:35.792Z,19.10
2018-02-27T07:37:35.815Z,21.90
2018-02-27T07:38:35.838Z,18.70
2018-02-27T07:39:35.867Z,19.20
2018-02-27T07:40:35.889Z,17.10
2018-02-27T07:41:35.916Z,20.10
2018-02-27T07:42:35.942Z,20.40
2018-02-27T07:43:35.968Z,16.50
2018-02-27T07:44:35.989Z,17.10
2018-02-27T07:45:36.017Z,16.50
2018-02-27T07:46:36.039Z,17.10
2018-02-27T07:47:36.074Z,17.80
2018-02-27T07:48:36.091Z,18.50
2018-02-27T07:49:36.118Z,18.50
2018-02-27T07:50:36.208Z,17.40
2018-02-27T07:51:36.164Z,16.10
2018-02-27T07:52:36.226Z,16.70
2018-02-27T07:53:36.213Z,17.80
2018-02-27T07:54:36.248Z,17.00
2018-02-27T07:55:36.263Z,16.50
2018-02-27T07:56:36.289Z,16.70
2018-02-27T07:57:36.323Z,20.70
2018-02-27T07:58:36.339Z,20.50
2018-02-27T07:59:36.367Z,15.10
2018-02-27T08:00:36.388Z,14.10
2018-02-27T08:01:36.418Z,17.60
2018-02-27T08:02:36.520Z,16.10
2018-02-27T08:03:36.465Z,15.00
2018-02-27T08:04:36.491Z,14.60
2018-02-27T08:05:36.522Z,17.60
2018-02-27T08:06:36.540Z,15.70
2018-02-27T08:07:36.564Z,14.30
2018-02-27T08:08:36.590Z,16.80
2018-02-27T08:09:36.621Z,12.60
2018-02-27T08:10:36.648Z,16.00
2018-02-27T08:11:36.672Z,12.10
2018-02-27T08:12:36.694Z,14.80
2018-02-27T08:13:36.721Z,14.00
2018-02-27T08:14:36.745Z,13.30
2018-02-27T08:15:36.770Z,14.50
2018-02-27T08:16:36.795Z,16.20
2018-02-27T08:17:36.821Z,12.40
2018-02-27T08:18:36.844Z,17.10
2018-02-27T08:19:36.880Z,12.00
2018-02-27T08:20:36.900Z,14.20
2018-02-27T08:21:36.928Z,13.60
2018-02-27T08:22:36.950Z,15.10
2018-02-27T08:23:36.972Z,13.80
2018-02-27T08:24:37.000Z,11.90
2018-02-27T08:25:37.025Z,15.50
2018-02-27T08:26:37.089Z,14.30
2018-02-27T08:27:37.073Z,15.50
2018-02-27T08:28:37.166Z,12.40
2018-02-27T08:29:37.126Z,12.60
2018-02-27T08:30:37.148Z,13.70
2018-02-27T08:31:37.173Z,14.40
2018-02-27T08:32:37.201Z,15.10
2018-02-27T08:33:37.229Z,13.00
2018-02-27T08:34:37.248Z,15.90
2018-02-27T08:35:37.276Z,14.60
2018-02-27T08:36:37.347Z,15.00
2018-02-27T08:37:37.363Z,14.10
2018-02-27T08:38:37.354Z,14.10
2018-02-27T08:39:37.378Z,14.60
2018-02-27T08:40:37.407Z,14.10
2018-02-27T08:41:37.428Z,13.90
2018-02-27T08:42:37.455Z,14.20
2018-02-27T08:43:37.479Z,13.20
2018-02-27T08:44:37.503Z,13.40
2018-02-27T08:45:37.531Z,12.50
2018-02-27T08:46:37.555Z,12.10
2018-02-27T08:47:37.583Z,15.20
2018-02-27T08:48:37.605Z,13.20
2018-02-27T08:49:37.632Z,15.90
2018-02-27T08:50:37.670Z,11.30
2018-02-27T08:51:37.685Z,14.40
2018-02-27T08:52:37.707Z,12.60
2018-02-27T08:53:37.736Z,12.40
2018-02-27T08:54:37.755Z,12.10
2018-02-27T08:55:37.786Z,14.50
2018-02-27T08:56:37.813Z,12.00
2018-02-27T08:57:37.838Z,14.00
2018-02-27T08:58:37.861Z,11.30
2018-02-27T08:59:37.887Z,12.30
2018-02-27T09:00:37.910Z,12.90
2018-02-27T09:01:37.940Z,13.20
2018-02-27T09:02:37.962Z,11.10
2018-02-27T09:03:37.988Z,10.70
2018-02-27T09:04:38.010Z,14.50
2018-02-27T09:05:38.084Z,13.60
2018-02-27T09:06:38.062Z,11.00
2018-02-27T09:07:38.089Z,12.60
2018-02-27T09:08:38.114Z,13.30
2018-02-27T09:09:38.137Z,11.80
2018-02-27T09:10:38.164Z,11.20
2018-02-27T09:11:38.195Z,11.10
2018-02-27T09:12:38.212Z,12.20
2018-02-27T09:13:38.241Z,12.60
2018-02-27T09:14:38.279Z,11.40
2018-02-27T09:15:38.341Z,12.50
2018-02-27T09:16:38.317Z,12.00
2018-02-27T09:17:38.341Z,12.50
2018-02-27T09:18:38.381Z,11.40
2018-02-27T09:19:38.393Z,12.00
2018-02-27T09:20:38.419Z,10.10
2018-02-27T09:21:38.441Z,11.40
2018-02-27T09:22:38.604Z,11.10
2018-02-27T09:23:38.491Z,11.90
2018-02-27T09:24:38.522Z,12.20
2018-02-27T09:25:38.545Z,12.20
2018-02-27T09:26:38.571Z,10.40
2018-02-27T09:27:38.594Z,10.50
2018-02-27T09:28:38.622Z,11.80
2018-02-27T09:29:38.651Z,9.40
2018-02-27T09:30:38.671Z,8.10
2018-02-27T09:31:38.713Z,9.20
2018-02-27T09:32:38.751Z,12.50
2018-02-27T09:33:38.751Z,10.30
2018-02-27T09:34:38.774Z,9.30
2018-02-27T09:35:38.802Z,9.30
2018-02-27T09:36:38.824Z,9.70
2018-02-27T09:37:38.850Z,8.30
2018-02-27T09:38:38.921Z,10.30
2018-02-27T09:39:38.912Z,11.00
2018-02-27T09:40:38.977Z,10.20
2018-02-27T09:41:38.954Z,9.50
2018-02-27T09:42:38.978Z,10.40
2018-02-27T09:43:39.003Z,11.10
2018-02-27T09:44:39.132Z,9.90
2018-02-27T09:45:39.062Z,9.40
2018-02-27T09:46:39.082Z,10.10
2018-02-27T09:47:39.104Z,10.20
2018-02-27T09:48:39.131Z,9.70
2018-02-27T09:49:39.155Z,8.90
2018-02-27T09:50:39.184Z,9.60
2018-02-27T09:51:39.263Z,10.20
2018-02-27T09:52:39.233Z,10.10
2018-02-27T09:53:39.274Z,8.40
2018-02-27T09:54:39.282Z,9.10
2018-02-27T09:55:39.309Z,9.10
2018-02-27T09:56:39.336Z,12.00
2018-02-27T09:57:39.364Z,13.50
2018-02-27T09:58:39.393Z,11.20
2018-02-27T09:59:39.414Z,8.60
2018-02-27T10:00:39.438Z,8.70
2018-02-27T10:01:39.497Z,8.50
2018-02-27T10:02:39.489Z,11.50
2018-02-27T10:03:39.525Z,9.60
2018-02-27T10:04:39.552Z,9.20
2018-02-27T10:05:39.566Z,14.70
2018-02-27T10:06:39.607Z,8.80
2018-02-27T10:07:39.621Z,9.10
2018-02-27T10:08:39.644Z,10.60
2018-02-27T10:09:39.676Z,8.90
2018-02-27T10:10:39.697Z,8.30
2018-02-27T10:11:39.725Z,9.80
2018-02-27T10:12:39.749Z,9.40
2018-02-27T10:13:39.788Z,9.30
2018-02-27T10:14:39.800Z,8.70
2018-02-27T10:15:39.825Z,10.20
2018-02-27T10:16:39.851Z,8.70
2018-02-27T10:17:39.878Z,7.70
2018-02-27T10:18:39.947Z,9.20
2018-02-27T10:19:39.931Z,7.20
2018-02-27T10:20:39.957Z,8.80
2018-02-27T10:21:39.982Z,10.00
2018-02-27T10:22:40.017Z,7.20
2018-02-27T10:23:40.037Z,8.80
2018-02-27T10:24:40.060Z,7.80
2018-02-27T10:25:40.094Z,9.50
2018-02-27T10:26:40.110Z,9.30
2018-02-27T10:27:40.137Z,8.00
2018-02-27T10:28:40.167Z,9.80
2018-02-27T10:29:40.199Z,7.10
2018-02-27T10:30:40.281Z,10.40
2018-02-27T10:31:40.244Z,8.10
2018-02-27T10:32:40.282Z,9.40
2018-02-27T10:33:40.293Z,9.30
2018-02-27T10:34:40.333Z,10.60
2018-02-27T10:35:40.347Z,9.00
2018-02-27T10:36:40.369Z,9.00
2018-02-27T10:37:40.399Z,9.00
2018-02-27T10:38:40.430Z,10.50
2018-02-27T10:39:40.454Z,7.80
2018-02-27T10:40:40.532Z,10.80
2018-02-27T10:41:40.501Z,7.30
2018-02-27T10:42:40.529Z,8.30
2018-02-27T10:43:40.551Z,7.60
2018-02-27T10:44:40.578Z,8.60
2018-02-27T10:45:40.605Z,9.50
2018-02-27T10:46:40.632Z,7.90
2018-02-27T10:47:40.720Z,8.80
2018-02-27T10:48:40.682Z,9.40
2018-02-27T10:49:40.710Z,9.40
2018-02-27T10:50:40.735Z,9.70
2018-02-27T10:51:40.759Z,9.10
2018-02-27T10:52:40.790Z,7.90
2018-02-27T10:53:40.812Z,9.50
2018-02-27T10:54:40.840Z,10.60
2018-02-27T10:55:40.866Z,8.40
2018-02-27T10:56:40.891Z,7.30
2018-02-27T10:57:40.934Z,9.30
2018-02-27T10:58:40.944Z,7.00
2018-02-27T10:59:40.973Z,8.90
2018-02-27T11:00:40.998Z,6.80
2018-02-27T11:01:41.026Z,8.50
2018-02-27T11:02:41.053Z,8.70
2018-02-27T11:03:41.081Z,6.80
2018-02-27T11:04:41.104Z,7.40
2018-02-27T11:05:41.127Z,7.70
2018-02-27T11:06:41.151Z,7.20
2018-02-27T11:07:41.181Z,6.80
2018-02-27T11:08:41.206Z,7.80
2018-02-27T11:09:41.234Z,7.30
2018-02-27T11:10:41.258Z,7.20
2018-02-27T11:11:41.285Z,6.20
2018-02-27T11:12:41.315Z,6.30
2018-02-27T11:13:41.340Z,7.10
2018-02-27T11:14:41.466Z,7.10
2018-02-27T11:15:41.406Z,6.40
2018-02-27T11:16:41.420Z,6.80
2018-02-27T11:17:41.447Z,7.70
2018-02-27T11:18:41.476Z,8.40
2018-02-27T11:19:41.496Z,6.70
2018-02-27T11:20:41.524Z,6.20
2018-02-27T11:21:41.559Z,7.60
2018-02-27T11:22:41.575Z,7.80
2018-02-27T11:23:41.604Z,6.60
2018-02-27T11:24:41.633Z,6.20
2018-02-27T11:25:41.656Z,7.00
2018-02-27T11:26:41.684Z,8.10
2018-02-27T11:27:41.708Z,6.30
2018-02-27T11:28:41.735Z,7.70
2018-02-27T11:29:41.760Z,6.70
2018-02-27T11:30:41.787Z,7.60
2018-02-27T11:31:41.822Z,6.80
2018-02-27T11:32:41.841Z,5.80
2018-02-27T11:33:41.895Z,8.20
2018-02-27T11:34:41.894Z,6.20
2018-02-27T11:35:41.928Z,8.40
2018-02-27T11:36:41.946Z,6.90
2018-02-27T11:37:41.976Z,9.20
2018-02-27T11:38:41.999Z,7.20
2018-02-27T11:39:42.027Z,5.60
2018-02-27T11:40:42.082Z,6.30
2018-02-27T11:41:42.079Z,8.80
2018-02-27T11:42:42.108Z,7.40
2018-02-27T11:43:42.135Z,8.80
2018-02-27T11:44:42.159Z,8.30
2018-02-27T11:45:42.186Z,7.70
2018-02-27T11:46:42.212Z,5.70
2018-02-27T11:47:42.239Z,6.50
2018-02-27T11:48:42.267Z,6.80
2018-02-27T11:49:42.297Z,6.20
2018-02-27T11:50:42.331Z,7.30
2018-02-27T11:51:42.349Z,6.40
2018-02-27T11:52:42.371Z,6.40
2018-02-27T11:53:42.399Z,7.10
2018-02-27T11:54:42.442Z,10.30
2018-02-27T11:55:42.457Z,6.70
2018-02-27T11:56:42.489Z,4.50
2018-02-27T11:57:42.512Z,6.20
2018-02-27T11:58:42.531Z,6.70
2018-02-27T11:59:42.559Z,6.70
2018-02-27T12:00:42.586Z,6.60
2018-02-27T12:01:42.622Z,7.00
2018-02-27T12:02:42.645Z,7.10
2018-02-27T12:03:42.665Z,6.40
2018-02-27T12:04:42.691Z,7.90
2018-02-27T12:05:42.720Z,7.20
2018-02-27T12:06:42.745Z,7.20
2018-02-27T12:07:42.774Z,7.80
2018-02-27T12:08:42.800Z,5.60
2018-02-27T12:09:42.824Z,6.60
2018-02-27T12:10:42.851Z,5.80
2018-02-27T12:11:42.879Z,6.30
2018-02-27T12:12:42.913Z,7.20
2018-02-27T12:13:42.980Z,9.90
2018-02-27T12:14:43.017Z,6.80
2018-02-27T12:15:42.983Z,7.60
2018-02-27T12:16:43.016Z,7.00
2018-02-27T12:17:43.041Z,6.80
2018-02-27T12:18:43.063Z,6.80
2018-02-27T12:19:43.144Z,7.70
2018-02-27T12:20:43.119Z,5.90
2018-02-27T12:21:43.144Z,5.90
2018-02-27T12:22:43.172Z,5.90
2018-02-27T12:23:43.203Z,7.60
2018-02-27T12:24:43.233Z,6.60
2018-02-27T12:25:43.252Z,7.10
2018-02-27T12:26:43.419Z,7.80
2018-02-27T12:27:43.306Z,8.80
2018-02-27T12:28:43.332Z,5.50
2018-02-27T12:29:43.363Z,6.30
2018-02-27T12:30:43.387Z,5.90
2018-02-27T12:31:43.414Z,7.10
2018-02-27T12:32:43.440Z,7.00
2018-02-27T12:33:43.465Z,7.10
2018-02-27T12:34:43.502Z,6.70
2018-02-27T12:35:43.521Z,6.30
2018-02-27T12:36:43.578Z,6.60
2018-02-27T12:37:43.588Z,7.40
2018-02-27T12:38:43.604Z,7.50
2018-02-27T12:39:43.627Z,8.40
2018-02-27T12:40:43.656Z,6.10
2018-02-27T12:41:43.691Z,7.20
2018-02-27T12:42:43.707Z,6.00
2018-02-27T12:43:43.819Z,6.50
2018-02-27T12:44:43.767Z,5.90
2018-02-27T12:45:43.795Z,6.90
2018-02-27T12:46:43.816Z,7.20
2018-02-27T12:47:43.845Z,5.80
2018-02-27T12:48:43.868Z,7.10
2018-02-27T12:49:43.895Z,5.20
2018-02-27T12:50:43.928Z,6.10
2018-02-27T12:51:43.951Z,8.70
2018-02-27T12:52:43.975Z,9.60
2018-02-27T12:53:44.063Z,6.50
2018-02-27T12:54:44.038Z,6.60
2018-02-27T12:55:44.058Z,6.80
2018-02-27T12:56:44.084Z,5.30
2018-02-27T12:57:44.115Z,5.80
2018-02-27T12:58:44.139Z,6.60
2018-02-27T12:59:44.168Z,6.00
2018-02-27T13:00:44.192Z,6.30
2018-02-27T13:01:44.220Z,8.00
2018-02-27T13:02:44.261Z,5.70
2018-02-27T13:03:44.272Z,4.50
2018-02-27T13:04:44.299Z,5.50
2018-02-27T13:05:44.327Z,5.40
2018-02-27T13:06:44.362Z,5.80
2018-02-27T13:07:44.389Z,5.20